createdAt,value
2019-05-07T00:01:54.819Z,90.30
2019-05-07T00:04:22.491Z,90.50
2019-05-07T00:06:52.152Z,91.20
2019-05-07T00:09:19.758Z,91.70
2019-05-07T00:11:48.569Z,91.70
2019-05-07T00:14:16.097Z,91.60
2019-05-07T00:16:43.568Z,91.90
2019-05-07T00:19:12.895Z,92.20
2019-05-07T00:24:51.996Z,92.60
2019-05-07T00:27:19.028Z,92.90
2019-05-07T00:29:46.684Z,93.30
2019-05-07T00:32:14.080Z,92.70
2019-05-07T00:34:46.371Z,93.10
2019-05-07T00:37:22.051Z,93.30
2019-05-07T00:40:19.018Z,93.30
2019-05-07T00:43:22.702Z,93.30
2019-05-07T00:46:12.988Z,93.50
2019-05-07T00:48:42.245Z,93.60
2019-05-07T00:51:30.199Z,93.60
2019-05-07T00:53:58.854Z,93.30
2019-05-07T00:56:26.396Z,93.30
2019-05-07T00:58:53.986Z,93.40
2019-05-07T01:01:22.725Z,93.10
2019-05-07T01:03:50.391Z,92.90
2019-05-07T01:06:18.307Z,93.10
2019-05-07T01:08:45.756Z,93.20
2019-05-07T01:11:13.319Z,93.40
2019-05-07T01:13:43.111Z,93.60
2019-05-07T01:16:12.742Z,93.90
2019-05-07T01:18:42.113Z,94.00
2019-05-07T01:21:09.638Z,93.80
2019-05-07T01:23:37.234Z,93.70
2019-05-07T01:26:04.818Z,93.40
2019-05-07T01:28:52.863Z,93.20
2019-05-07T01:31:22.221Z,93.10
2019-05-07T01:33:56.822Z,92.60
2019-05-07T01:36:24.478Z,92.30
2019-05-07T01:38:52.299Z,92.00
2019-05-07T01:41:19.753Z,91.80
2019-05-07T01:43:47.153Z,91.80
2019-05-07T01:46:14.760Z,91.40
2019-05-07T01:48:42.958Z,91.10
2019-05-07T01:51:12.679Z,91.00
2019-05-07T01:53:39.677Z,90.80
2019-05-07T01:56:07.237Z,90.80
2019-05-07T01:58:34.581Z,90.90
2019-05-07T02:01:02.765Z,90.70
2019-05-07T02:03:48.014Z,90.50
2019-05-07T02:06:24.237Z,90.70
2019-05-07T02:09:03.533Z,90.60
2019-05-07T02:11:37.886Z,90.60
2019-05-07T02:14:06.235Z,90.80
2019-05-07T02:16:33.649Z,91.60
2019-05-07T02:19:02.141Z,91.00
2019-05-07T02:21:30.333Z,90.70
2019-05-07T02:23:57.796Z,90.70
2019-05-07T02:26:25.322Z,90.70
2019-05-07T02:28:52.639Z,90.80
2019-05-07T02:31:22.970Z,90.80
2019-05-07T02:33:49.572Z,90.90
2019-05-07T02:36:16.900Z,91.10
2019-05-07T02:38:52.819Z,91.10
2019-05-07T02:41:25.939Z,91.20
2019-05-07T02:43:53.894Z,91.20
2019-05-07T02:46:52.580Z,91.40
2019-05-07T02:49:25.104Z,91.70
2019-05-07T02:51:58.667Z,92.10
2019-05-07T02:54:47.735Z,92.30
2019-05-07T02:57:17.030Z,92.50
2019-05-07T02:59:44.884Z,92.60
2019-05-07T03:02:13.893Z,92.60
2019-05-07T03:04:43.596Z,92.40
2019-05-07T03:07:13.206Z,92.40
2019-05-07T03:09:43.116Z,92.40
2019-05-07T03:12:13.193Z,92.40
2019-05-07T03:14:43.841Z,92.50
2019-05-07T03:17:13.301Z,92.90
2019-05-07T03:19:43.410Z,93.20
2019-05-07T03:22:13.988Z,93.30
2019-05-07T03:25:05.720Z,93.40
2019-05-07T03:27:34.041Z,93.50
2019-05-07T03:30:16.747Z,93.80
2019-05-07T03:32:56.266Z,93.90
2019-05-07T03:35:36.999Z,94.10
2019-05-07T03:38:03.458Z,94.30
2019-05-07T03:40:33.055Z,94.70
2019-05-07T03:43:04.869Z,94.90
2019-05-07T03:45:37.945Z,94.70
2019-05-07T03:48:13.529Z,94.60
2019-05-07T03:50:43.195Z,94.60
2019-05-07T03:53:13.854Z,94.70
2019-05-07T03:55:40.156Z,94.60
2019-05-07T03:58:07.717Z,94.80
2019-05-07T04:00:36.227Z,94.70
2019-05-07T04:03:03.837Z,94.50
2019-05-07T04:05:33.872Z,94.60
2019-05-07T04:08:03.321Z,94.70
2019-05-07T04:10:33.441Z,94.60
2019-05-07T04:12:59.928Z,94.60
2019-05-07T04:15:27.228Z,94.50
2019-05-07T04:17:54.663Z,94.40
2019-05-07T04:20:23.980Z,94.10
2019-05-07T04:22:53.523Z,94.00
2019-05-07T04:25:46.848Z,93.70
2019-05-07T04:28:24.254Z,93.80
2019-05-07T04:30:53.262Z,93.70
2019-05-07T04:33:23.824Z,93.60
2019-05-07T04:36:16.773Z,93.60
2019-05-07T04:38:44.702Z,93.70
2019-05-07T04:41:13.819Z,93.50
2019-05-07T04:43:43.528Z,93.20
2019-05-07T04:46:14.078Z,93.10
2019-05-07T04:48:43.538Z,92.90
2019-05-07T04:51:12.620Z,92.70
2019-05-07T04:53:42.923Z,92.50
2019-05-07T04:56:13.850Z,92.50
2019-05-07T04:58:43.064Z,92.50
2019-05-07T05:01:13.799Z,92.40
2019-05-07T05:03:43.460Z,91.90
2019-05-07T05:06:13.580Z,91.80
2019-05-07T05:08:43.258Z,91.70
2019-05-07T05:11:12.546Z,91.50
2019-05-07T05:13:39.238Z,91.10
2019-05-07T05:16:25.851Z,90.90
2019-05-07T05:18:55.251Z,90.60
2019-05-07T05:21:37.897Z,90.50
2019-05-07T05:24:19.240Z,90.70
2019-05-07T05:26:46.803Z,90.30
2019-05-07T05:29:14.808Z,89.40
2019-05-07T05:31:42.440Z,88.80
2019-05-07T05:34:10.206Z,88.10
2019-05-07T05:36:38.820Z,87.60
2019-05-07T05:39:07.379Z,85.30
2019-05-07T05:41:37.885Z,85.40
2019-05-07T05:44:09.079Z,87.00
2019-05-07T05:46:36.503Z,87.10
2019-05-07T05:49:04.097Z,86.20
2019-05-07T05:51:46.501Z,86.70
2019-05-07T05:54:31.959Z,87.30
2019-05-07T05:57:06.935Z,87.70
2019-05-07T05:59:56.749Z,88.50
2019-05-07T06:02:53.287Z,89.60
2019-05-07T06:05:43.361Z,86.80
2019-05-07T06:08:32.312Z,87.30
2019-05-07T06:11:08.196Z,88.20
2019-05-07T06:13:45.450Z,87.10
2019-05-07T06:16:15.875Z,87.70
2019-05-07T06:19:02.013Z,87.00
2019-05-07T06:21:49.335Z,86.70
2019-05-07T06:24:22.652Z,85.60
2019-05-07T06:26:52.146Z,85.40
2019-05-07T06:29:20.298Z,85.40
2019-05-07T06:32:02.630Z,85.00
2019-05-07T06:34:30.165Z,84.10
2019-05-07T06:36:57.493Z,82.70
2019-05-07T06:39:28.672Z,82.30
2019-05-07T06:42:14.432Z,82.40
2019-05-07T06:44:42.742Z,79.90
2019-05-07T06:47:12.953Z,78.50
2019-05-07T06:49:42.740Z,78.60
2019-05-07T06:52:12.248Z,79.10
2019-05-07T06:54:42.744Z,76.70
2019-05-07T06:57:10.087Z,73.30
2019-05-07T06:59:46.005Z,71.20
2019-05-07T07:02:52.449Z,68.80
2019-05-07T07:05:38.230Z,69.80
2019-05-07T07:08:13.207Z,67.60
2019-05-07T07:10:58.652Z,64.30
2019-05-07T07:13:28.014Z,63.60
2019-05-07T07:15:55.529Z,62.00
2019-05-07T07:18:23.224Z,58.70
2019-05-07T07:20:52.417Z,56.70
2019-05-07T07:23:19.973Z,56.60
2019-05-07T07:25:47.396Z,55.20
2019-05-07T07:28:14.702Z,55.00
2019-05-07T07:31:02.331Z,53.10
2019-05-07T07:33:32.096Z,53.50
2019-05-07T07:35:59.712Z,54.10
2019-05-07T07:38:33.224Z,55.50
2019-05-07T07:41:05.950Z,55.10
2019-05-07T07:43:33.229Z,54.70
2019-05-07T07:46:02.252Z,55.20
2019-05-07T07:48:31.918Z,54.40
2019-05-07T07:50:59.589Z,51.70
2019-05-07T07:53:26.941Z,49.70
2019-05-07T07:56:12.770Z,50.10
2019-05-07T07:59:12.664Z,50.40
2019-05-07T08:02:01.828Z,51.00
2019-05-07T08:04:29.273Z,52.10
2019-05-07T08:07:03.005Z,52.00
2019-05-07T08:09:32.458Z,51.30
2019-05-07T08:12:02.601Z,51.60
2019-05-07T08:14:32.466Z,52.40
2019-05-07T08:17:02.235Z,53.90
2019-05-07T08:19:32.519Z,54.50
2019-05-07T08:21:59.141Z,55.40
2019-05-07T08:24:26.960Z,56.60
2019-05-07T08:26:55.177Z,55.90
2019-05-07T08:29:23.269Z,54.50
2019-05-07T08:32:12.513Z,53.10
2019-05-07T08:34:47.573Z,53.10
2019-05-07T08:37:16.050Z,53.60
2019-05-07T08:39:44.231Z,53.30
2019-05-07T08:42:12.343Z,49.50
2019-05-07T08:44:46.572Z,47.80
2019-05-07T08:47:42.513Z,48.20
2019-05-07T08:50:11.826Z,48.80
2019-05-07T08:52:41.842Z,49.20
2019-05-07T08:55:12.563Z,47.70
2019-05-07T08:57:42.044Z,45.80
2019-05-07T09:00:12.356Z,42.00
2019-05-07T09:02:41.913Z,41.70
2019-05-07T09:05:11.797Z,41.40
2019-05-07T09:07:39.257Z,41.10
2019-05-07T09:10:06.745Z,41.70
2019-05-07T09:12:35.050Z,42.90
2019-05-07T09:15:02.941Z,45.20
2019-05-07T09:17:31.830Z,45.40
2019-05-07T09:19:59.504Z,47.50
2019-05-07T09:22:27.018Z,49.00
2019-05-07T09:24:54.787Z,49.50
2019-05-07T09:27:37.924Z,50.90
2019-05-07T09:30:24.321Z,52.10
2019-05-07T09:32:56.085Z,52.10
2019-05-07T09:35:28.104Z,51.20
2019-05-07T09:37:56.422Z,49.70
2019-05-07T09:40:23.811Z,50.50
2019-05-07T09:42:52.611Z,50.60
2019-05-07T09:45:22.308Z,49.70
2019-05-07T09:47:49.670Z,46.30
2019-05-07T09:50:17.349Z,45.40
2019-05-07T09:52:44.901Z,46.20
2019-05-07T09:55:17.249Z,47.30
2019-05-07T09:57:45.729Z,49.10
2019-05-07T10:00:13.927Z,50.50
2019-05-07T10:02:42.489Z,50.70
2019-05-07T10:05:10.595Z,48.60
2019-05-07T10:07:38.115Z,44.80
2019-05-07T10:10:06.183Z,43.00
2019-05-07T10:12:39.144Z,44.50
2019-05-07T10:15:07.354Z,44.60
2019-05-07T10:17:46.253Z,45.00
2019-05-07T10:20:21.794Z,46.50
2019-05-07T10:22:45.179Z,45.20
2019-05-07T10:25:12.878Z,40.30
2019-05-07T10:27:41.817Z,38.50
2019-05-07T10:30:09.586Z,38.80
2019-05-07T10:32:37.114Z,39.70
2019-05-07T10:35:04.936Z,39.40
2019-05-07T10:37:32.348Z,37.10
2019-05-07T10:40:00.037Z,34.60
2019-05-07T10:42:27.618Z,30.70
2019-05-07T10:45:06.414Z,29.60
2019-05-07T10:47:57.532Z,29.80
2019-05-07T10:50:37.973Z,31.10
2019-05-07T10:52:56.709Z,33.10
2019-05-07T10:55:24.246Z,35.10
2019-05-07T10:57:52.901Z,36.20
2019-05-07T11:00:24.507Z,37.70
2019-05-07T11:02:52.189Z,38.80
2019-05-07T11:05:21.976Z,40.20
2019-05-07T11:07:49.568Z,39.60
2019-05-07T11:10:17.484Z,39.10
2019-05-07T11:12:44.887Z,38.90
2019-05-07T11:15:12.837Z,39.70
2019-05-07T11:17:55.831Z,40.60
2019-05-07T11:20:23.319Z,42.20
2019-05-07T11:22:52.192Z,43.50
2019-05-07T11:25:22.365Z,45.20
2019-05-07T11:27:49.502Z,46.00
2019-05-07T11:30:18.329Z,46.70
2019-05-07T11:32:45.744Z,47.20
2019-05-07T11:35:14.761Z,47.30
2019-05-07T11:37:44.264Z,47.90
2019-05-07T11:40:13.167Z,48.30
2019-05-07T11:43:15.490Z,48.70
2019-05-07T11:45:54.363Z,48.50
2019-05-07T11:48:22.813Z,48.10
2019-05-07T11:51:04.322Z,48.90
2019-05-07T11:53:32.676Z,47.80
2019-05-07T11:56:02.352Z,47.60
2019-05-07T11:58:29.561Z,48.20
2019-05-07T12:01:03.878Z,48.00
2019-05-07T12:03:32.473Z,48.10
2019-05-07T12:06:01.864Z,48.10
2019-05-07T12:08:39.429Z,44.70
2019-05-07T12:10:58.557Z,43.60
2019-05-07T12:13:25.907Z,43.00
2019-05-07T12:15:53.384Z,44.00
2019-05-07T12:18:22.689Z,44.70
2019-05-07T12:20:53.877Z,44.50
2019-05-07T12:23:22.573Z,45.10
2019-05-07T12:25:50.179Z,45.80
2019-05-07T12:28:17.688Z,45.60
2019-05-07T12:31:19.978Z,44.30
2019-05-07T12:33:52.168Z,43.30
2019-05-07T12:36:19.862Z,43.30
2019-05-07T12:38:47.287Z,44.30
2019-05-07T12:41:33.734Z,45.50
2019-05-07T12:44:04.497Z,46.10
2019-05-07T12:46:33.519Z,46.50
2019-05-07T12:49:05.457Z,47.90
2019-05-07T12:51:43.241Z,48.60
2019-05-07T12:54:26.411Z,49.00
2019-05-07T12:56:54.359Z,50.90
2019-05-07T12:59:23.815Z,51.60
2019-05-07T13:02:16.011Z,52.20
2019-05-07T13:04:32.596Z,52.20
2019-05-07T13:07:28.812Z,52.60
2019-05-07T13:09:56.181Z,52.20
2019-05-07T13:12:24.288Z,52.70
2019-05-07T13:14:52.266Z,52.50
2019-05-07T13:17:22.259Z,52.50
2019-05-07T13:19:49.424Z,53.00
2019-05-07T13:22:17.084Z,51.80
2019-05-07T13:24:45.741Z,51.50
2019-05-07T13:27:14.506Z,52.60
2019-05-07T13:29:44.903Z,52.70
2019-05-07T13:32:14.078Z,52.80
2019-05-07T13:34:42.680Z,52.90
2019-05-07T13:37:16.490Z,53.00
2019-05-07T13:39:52.036Z,53.50
2019-05-07T13:42:39.024Z,53.40
2019-05-07T13:45:45.562Z,53.80
2019-05-07T13:48:18.200Z,53.20
2019-05-07T13:50:46.899Z,53.50
2019-05-07T13:53:16.754Z,52.10
2019-05-07T13:55:44.579Z,52.80
2019-05-07T13:58:14.329Z,52.80
2019-05-07T14:00:52.565Z,52.40
2019-05-07T14:03:20.196Z,51.80
2019-05-07T14:05:47.644Z,51.70
2019-05-07T14:08:15.682Z,52.10
2019-05-07T14:10:43.200Z,52.30
2019-05-07T14:13:15.018Z,52.60
2019-05-07T14:16:02.655Z,52.30
2019-05-07T14:18:30.207Z,52.20
2019-05-07T14:20:57.512Z,51.80
2019-05-07T14:23:26.387Z,51.70
2019-05-07T14:25:54.150Z,51.40
2019-05-07T14:28:23.645Z,51.30
2019-05-07T14:30:52.307Z,51.30
2019-05-07T14:33:38.635Z,52.10
2019-05-07T14:36:11.975Z,52.90
2019-05-07T14:38:44.236Z,53.60
2019-05-07T14:41:12.998Z,54.50
2019-05-07T14:43:46.163Z,55.10
2019-05-07T14:46:13.891Z,55.60
2019-05-07T14:48:41.934Z,56.30
2019-05-07T14:51:12.675Z,56.90
2019-05-07T14:53:40.818Z,57.30
2019-05-07T14:56:08.524Z,57.30
2019-05-07T14:58:36.071Z,56.90
2019-05-07T15:01:03.643Z,57.00
2019-05-07T15:03:31.905Z,57.10
2019-05-07T15:05:59.538Z,57.30
2019-05-07T15:08:27.202Z,57.00
2019-05-07T15:14:52.619Z,57.10
2019-05-07T15:17:32.457Z,56.90
2019-05-07T15:20:00.008Z,56.30
2019-05-07T15:22:49.838Z,56.20
2019-05-07T15:25:16.345Z,56.50
2019-05-07T15:27:45.064Z,56.20
2019-05-07T15:30:13.953Z,56.40
2019-05-07T15:32:42.823Z,56.10
2019-05-07T15:35:12.451Z,56.90
2019-05-07T15:37:39.938Z,57.60
2019-05-07T15:40:08.133Z,58.50
2019-05-07T15:42:35.884Z,59.00
2019-05-07T15:45:03.690Z,59.30
2019-05-07T15:47:37.590Z,59.90
2019-05-07T15:50:06.118Z,59.80
2019-05-07T15:52:58.374Z,58.60
2019-05-07T15:55:25.735Z,59.00
2019-05-07T15:57:53.353Z,59.00
2019-05-07T16:00:23.003Z,58.30
2019-05-07T16:02:55.693Z,57.90
2019-05-07T16:05:23.917Z,57.50
2019-05-07T16:07:52.242Z,57.60
2019-05-07T16:10:20.124Z,57.90
2019-05-07T16:12:48.094Z,58.10
2019-05-07T16:15:16.916Z,58.20
2019-05-07T16:17:49.635Z,57.20
2019-05-07T16:20:17.191Z,56.70
2019-05-07T16:22:48.313Z,57.80
2019-05-07T16:25:15.785Z,58.70
2019-05-07T16:27:43.376Z,58.90
2019-05-07T16:30:14.013Z,59.30
2019-05-07T16:32:42.322Z,59.70
2019-05-07T16:35:12.473Z,59.00
2019-05-07T16:37:39.774Z,59.10
2019-05-07T16:40:07.784Z,60.00
2019-05-07T16:42:38.064Z,60.20
2019-05-07T16:45:06.626Z,60.60
2019-05-07T16:47:34.185Z,60.10
2019-05-07T16:50:04.119Z,60.10
2019-05-07T16:52:35.253Z,60.40
2019-05-07T16:55:05.456Z,60.60
2019-05-07T16:57:59.010Z,59.90
2019-05-07T17:00:48.077Z,60.00
2019-05-07T17:08:22.358Z,58.00
2019-05-07T17:11:08.172Z,58.40
2019-05-07T17:13:39.361Z,60.20
2019-05-07T17:16:07.414Z,62.00
2019-05-07T17:18:34.998Z,63.80
2019-05-07T17:21:03.100Z,65.20
2019-05-07T17:26:48.112Z,69.00
2019-05-07T17:29:15.738Z,70.70
2019-05-07T17:31:43.257Z,71.90
2019-05-07T17:34:11.834Z,72.80
2019-05-07T17:36:41.926Z,74.00
2019-05-07T17:39:09.415Z,75.10
2019-05-07T17:41:38.562Z,76.30
2019-05-07T17:44:06.803Z,76.30
2019-05-07T17:46:34.532Z,76.60
2019-05-07T17:49:02.797Z,77.00
2019-05-07T17:51:52.428Z,77.50
2019-05-07T17:54:19.670Z,77.90
2019-05-07T17:56:47.296Z,78.50
2019-05-07T17:59:15.031Z,79.50
2019-05-07T18:01:55.358Z,80.40
2019-05-07T18:04:23.382Z,81.60
2019-05-07T18:06:52.202Z,82.60
2019-05-07T18:09:19.698Z,83.90
2019-05-07T18:11:47.219Z,85.20
2019-05-07T18:14:14.819Z,86.50
2019-05-07T18:17:15.792Z,87.50
2019-05-07T18:19:45.398Z,87.90
2019-05-07T18:22:12.908Z,89.40
2019-05-07T18:24:41.955Z,90.40
2019-05-07T18:27:13.569Z,91.20
2019-05-07T18:29:42.812Z,91.70
2019-05-07T18:32:12.403Z,91.80
2019-05-07T18:34:39.966Z,91.90
2019-05-07T18:37:07.627Z,92.50
2019-05-07T18:39:35.332Z,93.10
2019-05-07T18:42:03.731Z,93.60
2019-05-07T18:44:32.837Z,93.90
2019-05-07T18:47:02.363Z,94.20
2019-05-07T18:49:30.107Z,94.00
2019-05-07T18:51:58.782Z,94.10
2019-05-07T18:54:30.817Z,94.40
2019-05-07T18:56:55.889Z,94.60
2019-05-07T18:59:25.435Z,94.50
2019-05-07T19:01:52.840Z,94.30
2019-05-07T19:04:21.924Z,94.50
2019-05-07T19:06:51.608Z,94.90
2019-05-07T19:09:18.932Z,95.10
2019-05-07T19:11:46.459Z,95.30
2019-05-07T19:14:14.141Z,95.60
2019-05-07T19:16:43.081Z,95.80
2019-05-07T19:19:12.512Z,95.80
2019-05-07T19:21:42.166Z,95.70
2019-05-07T19:24:09.590Z,95.90
2019-05-07T19:26:37.067Z,96.00
2019-05-07T19:29:05.903Z,96.10
2019-05-07T19:31:33.342Z,96.20
2019-05-07T19:34:02.911Z,96.30
2019-05-07T19:36:32.157Z,96.50
2019-05-07T19:39:01.839Z,96.40
2019-05-07T19:41:32.073Z,96.40
2019-05-07T19:44:01.898Z,96.30
2019-05-07T19:46:30.382Z,96.30
2019-05-07T19:48:57.954Z,96.20
2019-05-07T19:51:25.293Z,96.00
2019-05-07T19:53:53.026Z,96.20
2019-05-07T19:59:49.494Z,96.50
2019-05-07T20:02:22.842Z,96.80
2019-05-07T20:04:52.265Z,97.00
2019-05-07T20:07:20.866Z,97.20
2019-05-07T20:09:49.347Z,97.40
2019-05-07T20:12:17.262Z,97.50
2019-05-07T20:14:45.421Z,97.80
2019-05-07T20:17:13.063Z,97.90
2019-05-07T20:19:41.784Z,98.20
2019-05-07T20:22:09.334Z,98.30
2019-05-07T20:24:37.538Z,98.60
2019-05-07T20:27:05.440Z,98.80
2019-05-07T20:29:32.797Z,98.80
2019-05-07T20:32:00.384Z,99.10
2019-05-07T20:34:28.572Z,99.30
2019-05-07T20:36:56.006Z,99.30
2019-05-07T20:39:23.610Z,99.40
2019-05-07T20:41:52.694Z,99.50
2019-05-07T20:44:21.389Z,99.70
2019-05-07T20:46:49.368Z,99.90
2019-05-07T20:49:16.819Z,99.90
2019-05-07T20:51:44.184Z,99.80
2019-05-07T20:54:24.935Z,99.70
2019-05-07T20:56:58.233Z,99.90
2019-05-07T20:59:26.146Z,99.90
2019-05-07T21:01:53.607Z,99.90
2019-05-07T21:04:24.327Z,99.90
2019-05-07T21:06:55.782Z,99.90
2019-05-07T21:09:25.108Z,99.90
2019-05-07T21:11:56.835Z,99.90
2019-05-07T21:14:26.057Z,99.90
2019-05-07T21:16:53.730Z,99.90
2019-05-07T21:19:22.404Z,99.90
2019-05-07T21:21:50.625Z,99.90
2019-05-07T21:24:19.097Z,99.90
2019-05-07T21:26:47.281Z,99.90
2019-05-07T21:29:15.516Z,99.90
2019-05-07T21:31:43.370Z,99.90
2019-05-07T21:34:12.419Z,99.90
2019-05-07T21:36:40.197Z,99.90
2019-05-07T21:39:07.744Z,99.90
2019-05-07T21:41:35.661Z,99.90
2019-05-07T21:44:03.427Z,99.90
2019-05-07T21:46:32.859Z,99.90
2019-05-07T21:49:03.899Z,99.90
2019-05-07T21:51:31.354Z,99.90
2019-05-07T21:54:05.194Z,99.90
2019-05-07T21:56:40.742Z,99.90
2019-05-07T21:59:12.610Z,99.90
2019-05-07T22:01:48.256Z,99.90
2019-05-07T22:04:15.678Z,99.90
2019-05-07T22:06:45.536Z,99.90
2019-05-07T22:09:13.603Z,99.90
2019-05-07T22:11:42.707Z,99.90
2019-05-07T22:14:12.610Z,99.90
2019-05-07T22:16:39.714Z,99.90
2019-05-07T22:19:07.415Z,99.90
2019-05-07T22:21:34.840Z,99.90
2019-05-07T22:24:02.987Z,99.90
2019-05-07T22:26:32.196Z,99.90
2019-05-07T22:28:59.970Z,99.90
2019-05-07T22:31:56.006Z,99.90
2019-05-07T22:34:31.400Z,99.90
2019-05-07T22:36:59.618Z,99.90
2019-05-07T22:39:44.020Z,99.90
2019-05-07T22:42:13.433Z,99.90
2019-05-07T22:44:42.554Z,99.90
2019-05-07T22:47:18.080Z,99.90
2019-05-07T22:49:48.981Z,99.90
2019-05-07T22:52:16.663Z,99.90
2019-05-07T22:54:44.245Z,99.90
2019-05-07T22:57:22.768Z,99.90
2019-05-07T22:59:49.452Z,99.90
2019-05-07T23:02:17.127Z,99.90
2019-05-07T23:04:44.717Z,99.90
2019-05-07T23:07:12.769Z,99.90
2019-05-07T23:09:41.987Z,99.90
2019-05-07T23:12:09.926Z,99.90
2019-05-07T23:14:37.268Z,99.90
2019-05-07T23:17:05.262Z,99.90
2019-05-07T23:19:32.853Z,99.90
2019-05-07T23:22:02.603Z,99.90
2019-05-07T23:24:31.740Z,99.90
2019-05-07T23:26:58.701Z,99.90
2019-05-07T23:29:27.839Z,99.90
2019-05-07T23:31:55.445Z,99.90
2019-05-07T23:34:23.044Z,99.90
2019-05-07T23:36:53.731Z,99.90
2019-05-07T23:39:23.367Z,99.90
2019-05-07T23:41:58.655Z,99.90
2019-05-07T23:44:29.279Z,99.90
2019-05-07T23:46:57.053Z,99.90
2019-05-07T23:49:25.661Z,99.90
2019-05-07T23:51:53.339Z,99.90
2019-05-07T23:54:23.003Z,99.90
2019-05-07T23:57:02.930Z,99.90
2019-05-07T23:59:19.345Z,99.90
